createdAt,value
2024-02-19T00:00:39.089Z,95851.00
2024-02-19T00:01:39.099Z,95850.00
2024-02-19T00:02:39.098Z,95851.00
2024-02-19T00:03:39.211Z,95851.00
2024-02-19T00:04:39.290Z,95849.00
2024-02-19T00:05:40.251Z,95852.00
2024-02-19T00:06:39.432Z,95851.00
2024-02-19T00:07:39.552Z,95849.00
2024-02-19T00:08:39.467Z,95847.00
2024-02-19T00:09:39.588Z,95843.00
2024-02-19T00:10:39.618Z,95845.00
2024-02-19T00:11:39.774Z,95847.00
2024-02-19T00:12:39.830Z,95849.00
2024-02-19T00:13:39.797Z,95850.00
2024-02-19T00:14:39.853Z,95852.00
2024-02-19T00:15:39.989Z,95852.00
2024-02-19T00:16:43.508Z,95852.00
2024-02-19T00:17:40.107Z,95853.00
2024-02-19T00:18:40.116Z,95849.00
2024-02-19T00:19:39.997Z,95846.00
2024-02-19T00:20:40.021Z,95845.00
2024-02-19T00:21:40.066Z,95843.00
2024-02-19T00:22:39.981Z,95841.00
2024-02-19T00:23:39.988Z,95839.00
2024-02-19T00:24:40.031Z,95840.00
2024-02-19T00:25:40.015Z,95838.00
2024-02-19T00:26:40.004Z,95837.00
2024-02-19T00:27:40.310Z,95833.00
2024-02-19T00:28:40.011Z,95831.00
2024-02-19T00:29:40.020Z,95829.00
2024-02-19T00:30:40.007Z,95827.00
2024-02-19T00:31:39.976Z,95825.00
2024-02-19T00:32:40.078Z,95826.00
2024-02-19T00:33:40.124Z,95826.00
2024-02-19T00:34:40.046Z,95825.00
2024-02-19T00:35:40.014Z,95825.00
2024-02-19T00:36:40.066Z,95826.00
2024-02-19T00:37:40.031Z,95826.00
2024-02-19T00:38:40.030Z,95829.00
2024-02-19T00:39:40.042Z,95828.00
2024-02-19T00:40:40.040Z,95830.00
2024-02-19T00:41:40.046Z,95831.00
2024-02-19T00:42:40.294Z,95831.00
2024-02-19T00:43:40.204Z,95832.00
2024-02-19T00:44:40.239Z,95833.00
2024-02-19T00:45:40.380Z,95835.00
2024-02-19T00:46:40.392Z,95836.00
2024-02-19T00:47:40.474Z,95833.00
2024-02-19T00:48:40.555Z,95831.00
2024-02-19T00:49:40.833Z,95830.00
2024-02-19T00:50:40.574Z,95828.00
2024-02-19T00:51:40.666Z,95826.00
2024-02-19T00:52:40.695Z,95825.00
2024-02-19T00:53:40.761Z,95824.00
2024-02-19T00:54:40.830Z,95824.00
2024-02-19T00:55:40.858Z,95825.00
2024-02-19T00:56:40.906Z,95825.00
2024-02-19T00:57:40.988Z,95823.00
2024-02-19T00:58:41.028Z,95822.00
2024-02-19T00:59:41.043Z,95824.00
2024-02-19T01:00:41.180Z,95825.00
2024-02-19T01:01:41.235Z,95825.00
2024-02-19T01:02:41.220Z,95825.00
2024-02-19T01:03:41.348Z,95825.00
2024-02-19T01:04:41.365Z,95827.00
2024-02-19T01:05:41.438Z,95829.00
2024-02-19T01:06:41.444Z,95829.00
2024-02-19T01:07:41.442Z,95827.00
2024-02-19T01:08:41.504Z,95829.00
2024-02-19T01:09:41.557Z,95828.00
2024-02-19T01:10:41.617Z,95831.00
2024-02-19T01:11:41.560Z,95831.00
2024-02-19T01:12:41.693Z,95835.00
2024-02-19T01:13:41.694Z,95839.00
2024-02-19T01:14:41.807Z,95841.00
2024-02-19T01:15:41.775Z,95842.00
2024-02-19T01:16:41.815Z,95842.00
2024-02-19T01:17:41.832Z,95840.00
2024-02-19T01:18:41.934Z,95840.00
2024-02-19T01:19:42.018Z,95840.00
2024-02-19T01:20:41.948Z,95840.00
2024-02-19T01:21:42.024Z,95840.00
2024-02-19T01:22:42.068Z,95843.00
2024-02-19T01:23:42.109Z,95844.00
2024-02-19T01:24:42.285Z,95845.00
2024-02-19T01:25:42.250Z,95846.00
2024-02-19T01:26:42.368Z,95848.00
2024-02-19T01:27:42.464Z,95843.00
2024-02-19T01:28:42.558Z,95840.00
2024-02-19T01:29:42.561Z,95843.00
2024-02-19T01:30:42.642Z,95845.00
2024-02-19T01:31:42.661Z,95848.00
2024-02-19T01:32:42.768Z,95850.00
2024-02-19T01:33:42.910Z,95853.00
2024-02-19T01:34:43.057Z,95855.00
2024-02-19T01:35:42.907Z,95854.00
2024-02-19T01:36:42.995Z,95853.00
2024-02-19T01:37:43.098Z,95853.00
2024-02-19T01:38:43.252Z,95855.00
2024-02-19T01:39:43.151Z,95853.00
2024-02-19T01:40:43.855Z,95853.00
2024-02-19T01:41:43.264Z,95854.00
2024-02-19T01:42:43.403Z,95853.00
2024-02-19T01:43:43.416Z,95851.00
2024-02-19T01:44:43.468Z,95848.00
2024-02-19T01:45:43.511Z,95849.00
2024-02-19T01:46:43.550Z,95849.00
2024-02-19T01:47:43.620Z,95849.00
2024-02-19T01:48:43.717Z,95847.00
2024-02-19T01:49:43.858Z,95846.00
2024-02-19T01:50:43.805Z,95844.00
2024-02-19T01:51:43.936Z,95844.00
2024-02-19T01:52:43.937Z,95841.00
2024-02-19T01:53:43.988Z,95839.00
2024-02-19T01:54:44.089Z,95837.00
2024-02-19T01:55:44.139Z,95840.00
2024-02-19T01:56:44.160Z,95841.00
2024-02-19T01:57:44.295Z,95839.00
2024-02-19T01:58:44.358Z,95840.00
2024-02-19T01:59:44.420Z,95837.00
2024-02-19T02:00:44.542Z,95837.00
2024-02-19T02:01:44.693Z,95836.00
2024-02-19T02:02:44.619Z,95836.00
2024-02-19T02:03:44.600Z,95837.00
2024-02-19T02:04:44.685Z,95838.00
2024-02-19T02:05:44.691Z,95838.00
2024-02-19T02:06:44.760Z,95838.00
2024-02-19T02:07:44.782Z,95837.00
2024-02-19T02:08:44.792Z,95838.00
2024-02-19T02:09:44.890Z,95837.00
2024-02-19T02:10:44.989Z,95836.00
2024-02-19T02:11:44.971Z,95839.00
2024-02-19T02:12:45.413Z,95840.00
2024-02-19T02:13:45.062Z,95841.00
2024-02-19T02:14:45.072Z,95840.00
2024-02-19T02:15:45.164Z,95843.00
2024-02-19T02:16:45.238Z,95842.00
2024-02-19T02:17:45.605Z,95845.00
2024-02-19T02:18:45.303Z,95845.00
2024-02-19T02:19:45.413Z,95848.00
2024-02-19T02:20:45.330Z,95847.00
2024-02-19T02:21:45.392Z,95852.00
2024-02-19T02:22:45.389Z,95856.00
2024-02-19T02:23:45.413Z,95856.00
2024-02-19T02:24:45.476Z,95856.00
2024-02-19T02:25:45.504Z,95856.00
2024-02-19T02:26:45.538Z,95853.00
2024-02-19T02:27:45.628Z,95852.00
2024-02-19T02:28:45.603Z,95849.00
2024-02-19T02:29:45.647Z,95848.00
2024-02-19T02:30:45.717Z,95852.00
2024-02-19T02:31:45.728Z,95853.00
2024-02-19T02:32:45.754Z,95854.00
2024-02-19T02:33:45.869Z,95857.00
2024-02-19T02:34:45.795Z,95857.00
2024-02-19T02:35:45.742Z,95857.00
2024-02-19T02:36:45.780Z,95859.00
2024-02-19T02:37:45.793Z,95857.00
2024-02-19T02:38:45.829Z,95856.00
2024-02-19T02:39:45.873Z,95857.00
2024-02-19T02:40:45.868Z,95854.00
2024-02-19T02:41:45.882Z,95849.00
2024-02-19T02:42:45.990Z,95849.00
2024-02-19T02:43:45.969Z,95847.00
2024-02-19T02:44:46.009Z,95847.00
2024-02-19T02:45:46.058Z,95846.00
2024-02-19T02:46:46.024Z,95845.00
2024-02-19T02:47:46.064Z,95840.00
2024-02-19T02:48:46.228Z,95836.00
2024-02-19T02:49:46.065Z,95833.00
2024-02-19T02:50:46.075Z,95835.00
2024-02-19T02:51:46.104Z,95839.00
2024-02-19T02:52:46.111Z,95839.00
2024-02-19T02:53:46.072Z,95842.00
2024-02-19T02:54:46.158Z,95840.00
2024-02-19T02:55:46.137Z,95840.00
2024-02-19T02:56:46.167Z,95838.00
2024-02-19T02:57:46.276Z,95840.00
2024-02-19T02:58:46.227Z,95841.00
2024-02-19T02:59:46.270Z,95842.00
2024-02-19T03:00:46.398Z,95838.00
2024-02-19T03:01:46.353Z,95837.00
2024-02-19T03:02:46.325Z,95834.00
2024-02-19T03:03:46.406Z,95834.00
2024-02-19T03:04:46.554Z,95835.00
2024-02-19T03:05:46.362Z,95837.00
2024-02-19T03:06:46.570Z,95838.00
2024-02-19T03:07:46.524Z,95842.00
2024-02-19T03:08:46.499Z,95842.00
2024-02-19T03:09:46.579Z,95842.00
2024-02-19T03:10:46.568Z,95841.00
2024-02-19T03:11:46.539Z,95840.00
2024-02-19T03:12:46.582Z,95838.00
2024-02-19T03:13:46.606Z,95837.00
2024-02-19T03:14:46.612Z,95838.00
2024-02-19T03:15:46.674Z,95839.00
2024-02-19T03:16:46.645Z,95839.00
2024-02-19T03:17:46.689Z,95838.00
2024-02-19T03:18:47.005Z,95837.00
2024-02-19T03:19:46.705Z,95837.00
2024-02-19T03:20:46.650Z,95836.00
2024-02-19T03:21:46.743Z,95836.00
2024-02-19T03:22:46.732Z,95838.00
2024-02-19T03:23:46.784Z,95839.00
2024-02-19T03:24:46.803Z,95838.00
2024-02-19T03:25:46.800Z,95837.00
2024-02-19T03:26:46.859Z,95839.00
2024-02-19T03:27:46.921Z,95836.00
2024-02-19T03:28:46.920Z,95837.00
2024-02-19T03:29:46.946Z,95835.00
2024-02-19T03:30:46.991Z,95834.00
2024-02-19T03:31:46.970Z,95833.00
2024-02-19T03:32:47.041Z,95831.00
2024-02-19T03:33:47.125Z,95834.00
2024-02-19T03:34:47.053Z,95838.00
2024-02-19T03:35:47.047Z,95838.00
2024-02-19T03:36:47.099Z,95844.00
2024-02-19T03:37:47.039Z,95845.00
2024-02-19T03:38:47.053Z,95849.00
2024-02-19T03:39:47.115Z,95852.00
2024-02-19T03:40:47.096Z,95854.00
2024-02-19T03:41:47.103Z,95855.00
2024-02-19T03:42:47.171Z,95856.00
2024-02-19T03:43:47.132Z,95859.00
2024-02-19T03:44:47.133Z,95860.00
2024-02-19T03:45:47.181Z,95861.00
2024-02-19T03:46:47.252Z,95864.00
2024-02-19T03:47:47.214Z,95866.00
2024-02-19T03:48:47.237Z,95869.00
2024-02-19T03:49:47.264Z,95871.00
2024-02-19T03:50:47.182Z,95874.00
2024-02-19T03:51:47.202Z,95875.00
2024-02-19T03:52:47.226Z,95876.00
2024-02-19T03:53:47.221Z,95876.00
2024-02-19T03:54:47.276Z,95872.00
2024-02-19T03:55:47.197Z,95871.00
2024-02-19T03:56:47.209Z,95868.00
2024-02-19T03:57:47.279Z,95863.00
2024-02-19T03:58:47.226Z,95859.00
2024-02-19T03:59:47.233Z,95857.00
2024-02-19T04:00:47.307Z,95859.00
2024-02-19T04:01:47.259Z,95860.00
2024-02-19T04:02:47.218Z,95867.00
2024-02-19T04:03:47.431Z,95867.00
2024-02-19T04:04:47.264Z,95869.00
2024-02-19T04:05:47.268Z,95867.00
2024-02-19T04:06:47.368Z,95869.00
2024-02-19T04:07:47.314Z,95872.00
2024-02-19T04:08:47.379Z,95872.00
2024-02-19T04:09:47.317Z,95874.00
2024-02-19T04:10:47.292Z,95873.00
2024-02-19T04:11:47.294Z,95871.00
2024-02-19T04:12:47.335Z,95874.00
2024-02-19T04:13:47.283Z,95877.00
2024-02-19T04:14:47.319Z,95877.00
2024-02-19T04:15:54.515Z,95878.00
2024-02-19T04:16:54.471Z,95877.00
2024-02-19T04:17:54.593Z,95880.00
2024-02-19T04:18:54.683Z,95882.00
2024-02-19T04:19:54.516Z,95877.00
2024-02-19T04:20:54.535Z,95877.00
2024-02-19T04:21:54.532Z,95874.00
2024-02-19T04:22:54.492Z,95877.00
2024-02-19T04:23:54.512Z,95875.00
2024-02-19T04:24:54.532Z,95875.00
2024-02-19T04:25:54.471Z,95880.00
2024-02-19T04:26:54.519Z,95883.00
2024-02-19T04:27:54.567Z,95885.00
2024-02-19T04:28:54.565Z,95884.00
2024-02-19T04:29:54.495Z,95885.00
2024-02-19T04:31:01.711Z,95884.00
2024-02-19T04:32:01.675Z,95885.00
2024-02-19T04:33:01.785Z,95886.00
2024-02-19T04:34:01.819Z,95885.00
2024-02-19T04:35:01.826Z,95885.00
2024-02-19T04:36:01.687Z,95885.00
2024-02-19T04:37:01.671Z,95887.00
2024-02-19T04:38:01.683Z,95887.00
2024-02-19T04:39:01.666Z,95886.00
2024-02-19T04:40:01.788Z,95886.00
2024-02-19T04:41:01.703Z,95886.00
2024-02-19T04:42:01.692Z,95887.00
2024-02-19T04:43:01.713Z,95884.00
2024-02-19T04:44:01.690Z,95886.00
2024-02-19T04:45:01.671Z,95888.00
2024-02-19T04:46:01.704Z,95889.00
2024-02-19T04:47:01.672Z,95890.00
2024-02-19T04:48:01.778Z,95893.00
2024-02-19T04:49:01.826Z,95889.00
2024-02-19T04:50:01.796Z,95882.00
2024-02-19T04:51:01.657Z,95879.00
2024-02-19T04:52:01.780Z,95879.00
2024-02-19T04:53:01.677Z,95875.00
2024-02-19T04:54:01.665Z,95876.00
2024-02-19T04:55:01.781Z,95877.00
2024-02-19T04:56:01.675Z,95880.00
2024-02-19T04:57:01.681Z,95882.00
2024-02-19T04:58:01.702Z,95881.00
2024-02-19T04:59:01.710Z,95878.00
2024-02-19T05:00:01.719Z,95878.00
2024-02-19T05:01:01.798Z,95876.00
2024-02-19T05:02:02.015Z,95874.00
2024-02-19T05:03:01.726Z,95872.00
2024-02-19T05:04:01.842Z,95868.00
2024-02-19T05:05:01.837Z,95865.00
2024-02-19T05:06:01.779Z,95864.00
2024-02-19T05:07:01.750Z,95861.00
2024-02-19T05:08:01.740Z,95860.00
2024-02-19T05:09:01.692Z,95859.00
2024-02-19T05:10:01.791Z,95861.00
2024-02-19T05:11:01.845Z,95859.00
2024-02-19T05:12:01.727Z,95860.00
2024-02-19T05:13:01.835Z,95859.00
2024-02-19T05:14:01.745Z,95859.00
2024-02-19T05:15:01.696Z,95860.00
2024-02-19T05:16:01.749Z,95861.00
2024-02-19T05:17:01.820Z,95864.00
2024-02-19T05:18:01.877Z,95866.00
2024-02-19T05:19:01.872Z,95866.00
2024-02-19T05:20:01.943Z,95868.00
2024-02-19T05:21:01.713Z,95867.00
2024-02-19T05:22:01.734Z,95871.00
2024-02-19T05:23:01.709Z,95870.00
2024-02-19T05:24:01.724Z,95870.00
2024-02-19T05:25:01.770Z,95872.00
2024-02-19T05:26:01.707Z,95870.00
2024-02-19T05:27:01.721Z,95875.00
2024-02-19T05:28:01.780Z,95875.00
2024-02-19T05:29:01.765Z,95875.00
2024-02-19T05:30:01.701Z,95873.00
2024-02-19T05:31:01.754Z,95875.00
2024-02-19T05:32:01.707Z,95876.00
2024-02-19T05:33:01.783Z,95878.00
2024-02-19T05:34:01.744Z,95877.00
2024-02-19T05:35:01.773Z,95878.00
2024-02-19T05:36:01.722Z,95882.00
2024-02-19T05:37:01.770Z,95884.00
2024-02-19T05:38:01.756Z,95883.00
2024-02-19T05:39:01.750Z,95882.00
2024-02-19T05:40:01.925Z,95880.00
2024-02-19T05:41:01.741Z,95881.00
2024-02-19T05:42:01.726Z,95882.00
2024-02-19T05:43:01.782Z,95883.00
2024-02-19T05:44:01.742Z,95885.00
2024-02-19T05:45:01.748Z,95887.00
2024-02-19T05:46:01.754Z,95887.00
2024-02-19T05:47:01.716Z,95888.00
2024-02-19T05:48:01.910Z,95894.00
2024-02-19T05:49:01.796Z,95894.00
2024-02-19T05:50:01.912Z,95897.00
2024-02-19T05:51:01.716Z,95902.00
2024-02-19T05:52:01.796Z,95897.00
2024-02-19T05:53:01.787Z,95893.00
2024-02-19T05:54:01.728Z,95894.00
2024-02-19T05:55:01.778Z,95894.00
2024-02-19T05:56:01.761Z,95896.00
2024-02-19T05:57:01.764Z,95899.00
2024-02-19T05:58:01.802Z,95901.00
2024-02-19T05:59:01.773Z,95902.00
2024-02-19T06:00:01.728Z,95904.00
2024-02-19T06:01:01.910Z,95905.00
2024-02-19T06:02:01.927Z,95903.00
2024-02-19T06:03:01.789Z,95903.00
2024-02-19T06:04:01.815Z,95903.00
2024-02-19T06:05:03.581Z,95906.00
2024-02-19T06:06:01.825Z,95907.00
2024-02-19T06:07:01.872Z,95908.00
2024-02-19T06:08:01.795Z,95911.00
2024-02-19T06:09:01.776Z,95911.00
2024-02-19T06:10:01.811Z,95912.00
2024-02-19T06:11:01.820Z,95910.00
2024-02-19T06:12:01.798Z,95910.00
2024-02-19T06:13:01.819Z,95910.00
2024-02-19T06:14:01.791Z,95907.00
2024-02-19T06:15:01.814Z,95903.00
2024-02-19T06:16:01.833Z,95902.00
2024-02-19T06:17:01.818Z,95900.00
2024-02-19T06:18:01.896Z,95902.00
2024-02-19T06:19:01.840Z,95901.00
2024-02-19T06:20:01.828Z,95902.00
2024-02-19T06:21:01.803Z,95904.00
2024-02-19T06:22:01.814Z,95908.00
2024-02-19T06:23:01.782Z,95911.00
2024-02-19T06:24:01.765Z,95913.00
2024-02-19T06:25:01.840Z,95910.00
2024-02-19T06:26:01.828Z,95908.00
2024-02-19T06:27:01.791Z,95907.00
2024-02-19T06:28:01.823Z,95907.00
2024-02-19T06:29:01.772Z,95916.00
2024-02-19T06:30:01.802Z,95916.00
2024-02-19T06:31:01.941Z,95915.00
2024-02-19T06:32:01.802Z,95911.00
2024-02-19T06:33:01.997Z,95914.00
2024-02-19T06:34:01.963Z,95911.00
2024-02-19T06:35:01.963Z,95909.00
2024-02-19T06:36:01.802Z,95906.00
2024-02-19T06:37:01.845Z,95906.00
2024-02-19T06:38:01.825Z,95909.00
2024-02-19T06:39:01.791Z,95902.00
2024-02-19T06:40:01.893Z,95904.00
2024-02-19T06:41:01.838Z,95907.00
2024-02-19T06:42:01.842Z,95907.00
2024-02-19T06:43:01.864Z,95907.00
2024-02-19T06:44:01.802Z,95902.00
2024-02-19T06:45:01.818Z,95907.00
2024-02-19T06:46:01.957Z,95902.00
2024-02-19T06:47:01.850Z,95907.00
2024-02-19T06:48:01.944Z,95904.00
2024-02-19T06:49:01.913Z,95912.00
2024-02-19T06:50:01.879Z,95915.00
2024-02-19T06:51:01.918Z,95915.00
2024-02-19T06:52:01.915Z,95920.00
2024-02-19T06:53:01.850Z,95915.00
2024-02-19T06:54:01.838Z,95917.00
2024-02-19T06:55:01.857Z,95921.00
2024-02-19T06:56:01.854Z,95921.00
2024-02-19T06:57:01.825Z,95921.00
2024-02-19T06:58:01.853Z,95921.00
2024-02-19T06:59:01.817Z,95925.00
2024-02-19T07:00:01.865Z,95929.00
2024-02-19T07:01:01.939Z,95930.00
2024-02-19T07:02:05.110Z,95932.00
2024-02-19T07:03:02.849Z,95932.00
2024-02-19T07:04:01.880Z,95936.00
2024-02-19T07:05:02.024Z,95935.00
2024-02-19T07:06:01.823Z,95936.00
2024-02-19T07:07:01.880Z,95937.00
2024-02-19T07:08:01.845Z,95935.00
2024-02-19T07:09:01.841Z,95932.00
2024-02-19T07:10:02.051Z,95934.00
2024-02-19T07:11:01.850Z,95935.00
2024-02-19T07:12:01.853Z,95935.00
2024-02-19T07:13:01.931Z,95934.00
2024-02-19T07:14:01.868Z,95937.00
2024-02-19T07:15:01.867Z,95937.00
2024-02-19T07:16:01.936Z,95940.00
2024-02-19T07:17:01.840Z,95943.00
2024-02-19T07:18:01.925Z,95945.00
2024-02-19T07:19:01.923Z,95946.00
2024-02-19T07:20:02.176Z,95947.00
2024-02-19T07:21:01.838Z,95950.00
2024-02-19T07:22:01.915Z,95952.00
2024-02-19T07:23:01.872Z,95955.00
2024-02-19T07:24:01.951Z,95955.00
2024-02-19T07:25:10.271Z,95956.00
2024-02-19T07:26:03.046Z,95955.00
2024-02-19T07:27:01.906Z,95958.00
2024-02-19T07:28:01.997Z,95956.00
2024-02-19T07:29:01.934Z,95958.00
2024-02-19T07:30:01.949Z,95960.00
2024-02-19T07:31:01.965Z,95957.00
2024-02-19T07:32:01.923Z,95960.00
2024-02-19T07:33:01.951Z,95960.00
2024-02-19T07:34:02.153Z,95957.00
2024-02-19T07:35:01.953Z,95956.00
2024-02-19T07:36:01.920Z,95955.00
2024-02-19T07:37:01.947Z,95957.00
2024-02-19T07:38:01.912Z,95959.00
2024-02-19T07:39:01.977Z,95958.00
2024-02-19T07:40:01.962Z,95960.00
2024-02-19T07:41:01.944Z,95960.00
2024-02-19T07:42:01.921Z,95963.00
2024-02-19T07:43:01.952Z,95965.00
2024-02-19T07:44:01.923Z,95971.00
2024-02-19T07:45:01.930Z,95973.00
2024-02-19T07:46:02.000Z,95973.00
2024-02-19T07:47:03.625Z,95973.00
2024-02-19T07:48:02.155Z,95975.00
2024-02-19T07:49:02.111Z,95976.00
2024-02-19T07:50:02.150Z,95976.00
2024-02-19T07:51:01.928Z,95975.00
2024-02-19T07:52:01.979Z,95974.00
2024-02-19T07:53:01.968Z,95977.00
2024-02-19T07:54:01.942Z,95974.00
2024-02-19T07:55:01.968Z,95972.00
2024-02-19T07:56:01.961Z,95968.00
2024-02-19T07:57:01.944Z,95967.00
2024-02-19T07:58:02.021Z,95969.00
2024-02-19T07:59:01.975Z,95968.00
2024-02-19T08:00:02.134Z,95971.00
2024-02-19T08:01:04.603Z,95970.00
2024-02-19T08:02:02.106Z,95973.00
2024-02-19T08:03:01.959Z,95974.00
2024-02-19T08:04:02.132Z,95976.00
2024-02-19T08:05:02.325Z,95976.00
2024-02-19T08:06:02.018Z,95976.00
2024-02-19T08:07:02.289Z,95978.00
2024-02-19T08:08:01.954Z,95980.00
2024-02-19T08:09:02.012Z,95983.00
2024-02-19T08:10:02.029Z,95987.00
2024-02-19T08:11:01.985Z,95985.00
2024-02-19T08:12:02.124Z,95983.00
2024-02-19T08:13:02.097Z,95987.00
2024-02-19T08:14:02.098Z,95985.00
2024-02-19T08:15:01.988Z,95985.00
2024-02-19T08:16:02.075Z,95987.00
2024-02-19T08:17:01.938Z,95989.00
2024-02-19T08:18:02.042Z,95989.00
2024-02-19T08:19:02.133Z,95992.00
2024-02-19T08:20:02.127Z,95992.00
2024-02-19T08:21:01.966Z,95997.00
2024-02-19T08:22:02.061Z,95997.00
2024-02-19T08:23:02.018Z,95995.00
2024-02-19T08:24:01.998Z,95999.00
2024-02-19T08:25:02.167Z,95994.00
2024-02-19T08:26:02.017Z,95998.00
2024-02-19T08:27:01.986Z,95997.00
2024-02-19T08:28:02.012Z,95996.00
2024-02-19T08:29:02.016Z,95995.00
2024-02-19T08:30:01.999Z,95994.00
2024-02-19T08:31:02.055Z,95993.00
2024-02-19T08:32:01.971Z,95991.00
2024-02-19T08:33:02.034Z,95993.00
2024-02-19T08:34:02.190Z,96000.00
2024-02-19T08:35:02.080Z,96002.00
2024-02-19T08:36:01.992Z,96003.00
2024-02-19T08:37:02.085Z,96004.00
2024-02-19T08:38:02.034Z,96008.00
2024-02-19T08:39:02.108Z,96007.00
2024-02-19T08:40:02.093Z,96009.00
2024-02-19T08:41:02.001Z,96013.00
2024-02-19T08:42:02.017Z,96015.00
2024-02-19T08:43:02.099Z,96017.00
2024-02-19T08:44:02.018Z,96021.00
2024-02-19T08:45:02.039Z,96018.00
2024-02-19T08:46:02.146Z,96017.00
2024-02-19T08:47:02.029Z,96019.00
2024-02-19T08:48:02.086Z,96022.00
2024-02-19T08:49:02.184Z,96025.00
2024-02-19T08:50:02.185Z,96020.00
2024-02-19T08:51:02.067Z,96008.00
2024-02-19T08:52:02.064Z,96003.00
2024-02-19T08:53:02.062Z,96002.00
2024-02-19T08:54:02.044Z,96006.00
2024-02-19T08:55:02.195Z,96010.00
2024-02-19T08:56:02.043Z,96011.00
2024-02-19T08:57:02.015Z,96011.00
2024-02-19T08:58:02.110Z,96013.00
2024-02-19T08:59:02.146Z,96016.00
2024-02-19T09:00:02.206Z,96021.00
2024-02-19T09:01:02.452Z,96023.00
2024-02-19T09:02:02.469Z,96023.00
2024-02-19T09:03:02.417Z,96023.00
2024-02-19T09:04:02.609Z,96022.00
2024-02-19T09:05:02.611Z,96021.00
2024-02-19T09:06:02.747Z,96017.00
2024-02-19T09:07:02.790Z,96024.00
2024-02-19T09:08:02.754Z,96030.00
2024-02-19T09:09:02.828Z,96032.00
2024-02-19T09:10:02.968Z,96035.00
2024-02-19T09:11:03.010Z,96036.00
2024-02-19T09:12:03.045Z,96036.00
2024-02-19T09:13:03.171Z,96035.00
2024-02-19T09:14:03.176Z,96034.00
2024-02-19T09:15:03.209Z,96036.00
2024-02-19T09:16:03.243Z,96038.00
2024-02-19T09:17:03.286Z,96036.00
2024-02-19T09:18:03.379Z,96031.00
2024-02-19T09:19:03.515Z,96031.00
2024-02-19T09:20:03.552Z,96033.00
2024-02-19T09:21:03.486Z,96036.00
2024-02-19T09:22:03.659Z,96031.00
2024-02-19T09:23:03.575Z,96029.00
2024-02-19T09:24:03.602Z,96030.00
2024-02-19T09:25:03.703Z,96035.00
2024-02-19T09:26:03.640Z,96034.00
2024-02-19T09:27:03.674Z,96037.00
2024-02-19T09:28:03.737Z,96033.00
2024-02-19T09:29:03.753Z,96032.00
2024-02-19T09:30:03.785Z,96030.00
2024-02-19T09:31:03.883Z,96030.00
2024-02-19T09:32:03.823Z,96028.00
2024-02-19T09:33:03.954Z,96026.00
2024-02-19T09:34:04.003Z,96022.00
2024-02-19T09:35:04.168Z,96022.00
2024-02-19T09:36:03.977Z,96023.00
2024-02-19T09:37:04.140Z,96022.00
2024-02-19T09:38:04.046Z,96015.00
2024-02-19T09:39:04.097Z,96012.00
2024-02-19T09:40:04.182Z,96013.00
2024-02-19T09:41:04.189Z,96017.00
2024-02-19T09:42:04.243Z,96016.00
2024-02-19T09:43:04.284Z,96018.00
2024-02-19T09:44:04.339Z,96019.00
2024-02-19T09:45:04.368Z,96017.00
2024-02-19T09:46:04.492Z,96020.00
2024-02-19T09:47:04.470Z,96022.00
2024-02-19T09:48:04.670Z,96019.00
2024-02-19T09:49:04.671Z,96020.00
2024-02-19T09:50:04.705Z,96017.00
2024-02-19T09:51:04.722Z,96017.00
2024-02-19T09:52:04.837Z,96018.00
2024-02-19T09:53:04.842Z,96019.00
2024-02-19T09:54:04.972Z,96020.00
2024-02-19T09:55:05.046Z,96019.00
2024-02-19T09:56:05.067Z,96019.00
2024-02-19T09:57:05.144Z,96019.00
2024-02-19T09:58:05.286Z,96020.00
2024-02-19T09:59:05.299Z,96016.00
2024-02-19T10:00:05.330Z,96017.00
2024-02-19T10:01:05.451Z,96013.00
2024-02-19T10:02:06.496Z,96011.00
2024-02-19T10:03:05.517Z,96010.00
2024-02-19T10:04:07.639Z,96008.00
2024-02-19T10:05:05.757Z,96012.00
2024-02-19T10:06:05.606Z,96014.00
2024-02-19T10:07:05.651Z,96013.00
2024-02-19T10:08:05.817Z,96010.00
2024-02-19T10:09:05.528Z,96009.00
2024-02-19T10:10:05.613Z,96008.00
2024-02-19T10:11:05.554Z,96008.00
2024-02-19T10:12:05.553Z,96009.00
2024-02-19T10:13:05.530Z,96008.00
2024-02-19T10:14:05.569Z,96008.00
2024-02-19T10:15:05.525Z,96010.00
2024-02-19T10:16:07.288Z,96006.00
2024-02-19T10:17:05.549Z,96007.00
2024-02-19T10:18:05.649Z,96003.00
2024-02-19T10:19:05.945Z,96004.00
2024-02-19T10:20:05.573Z,96003.00
2024-02-19T10:21:05.543Z,96000.00
2024-02-19T10:22:05.617Z,96003.00
2024-02-19T10:23:05.580Z,96005.00
2024-02-19T10:24:05.664Z,96005.00
2024-02-19T10:25:05.591Z,96004.00
2024-02-19T10:26:05.546Z,96002.00
2024-02-19T10:27:05.565Z,96004.00
2024-02-19T10:28:05.582Z,96003.00
2024-02-19T10:29:05.574Z,96001.00
2024-02-19T10:30:05.573Z,95999.00
2024-02-19T10:31:05.606Z,95999.00
2024-02-19T10:32:05.586Z,95999.00
2024-02-19T10:33:05.639Z,95999.00
2024-02-19T10:34:05.726Z,96000.00
2024-02-19T10:35:05.683Z,95998.00
2024-02-19T10:36:05.573Z,95998.00
2024-02-19T10:37:05.602Z,95999.00
2024-02-19T10:38:05.585Z,95999.00
2024-02-19T10:39:05.619Z,96001.00
2024-02-19T10:40:05.654Z,96002.00
2024-02-19T10:41:07.461Z,96002.00
2024-02-19T10:42:05.624Z,96002.00
2024-02-19T10:43:05.711Z,96000.00
2024-02-19T10:44:05.681Z,95999.00
2024-02-19T10:45:05.651Z,95998.00
2024-02-19T10:46:05.712Z,95995.00
2024-02-19T10:47:05.706Z,95996.00
2024-02-19T10:48:05.814Z,95994.00
2024-02-19T10:49:05.909Z,95994.00
2024-02-19T10:50:05.720Z,95989.00
2024-02-19T10:51:05.675Z,95986.00
2024-02-19T10:52:05.752Z,95985.00
2024-02-19T10:53:05.758Z,95982.00
2024-02-19T10:54:05.979Z,95984.00
2024-02-19T10:55:13.346Z,95985.00
2024-02-19T10:56:06.885Z,95980.00
2024-02-19T10:57:05.768Z,95978.00
2024-02-19T10:58:05.810Z,95974.00
2024-02-19T10:59:05.806Z,95971.00
2024-02-19T11:00:05.770Z,95967.00
2024-02-19T11:01:06.042Z,95969.00
2024-02-19T11:02:05.885Z,95972.00
2024-02-19T11:03:05.820Z,95971.00
2024-02-19T11:04:05.918Z,95970.00
2024-02-19T11:05:05.810Z,95964.00
2024-02-19T11:06:05.841Z,95960.00
2024-02-19T11:07:05.857Z,95957.00
2024-02-19T11:08:05.787Z,95952.00
2024-02-19T11:09:05.792Z,95948.00
2024-02-19T11:10:05.889Z,95944.00
2024-02-19T11:11:05.956Z,95944.00
2024-02-19T11:12:05.840Z,95942.00
2024-02-19T11:13:05.834Z,95939.00
2024-02-19T11:14:05.776Z,95942.00
2024-02-19T11:15:05.803Z,95936.00
2024-02-19T11:16:05.842Z,95938.00
2024-02-19T11:17:05.898Z,95934.00
2024-02-19T11:18:05.868Z,95931.00
2024-02-19T11:19:05.830Z,95930.00
2024-02-19T11:20:05.836Z,95930.00
2024-02-19T11:21:05.823Z,95931.00
2024-02-19T11:22:05.916Z,95931.00
2024-02-19T11:23:05.793Z,95928.00
2024-02-19T11:24:05.839Z,95927.00
2024-02-19T11:25:05.838Z,95926.00
2024-02-19T11:26:05.804Z,95922.00
2024-02-19T11:27:05.808Z,95921.00
2024-02-19T11:28:05.830Z,95921.00
2024-02-19T11:29:05.821Z,95920.00
2024-02-19T11:30:05.805Z,95922.00
2024-02-19T11:31:05.886Z,95920.00
2024-02-19T11:32:05.793Z,95917.00
2024-02-19T11:33:05.854Z,95916.00
2024-02-19T11:34:05.874Z,95912.00
2024-02-19T11:35:05.841Z,95909.00
2024-02-19T11:36:05.813Z,95908.00
2024-02-19T11:37:05.885Z,95905.00
2024-02-19T11:38:05.893Z,95907.00
2024-02-19T11:39:05.866Z,95905.00
2024-02-19T11:40:05.886Z,95905.00
2024-02-19T11:41:05.850Z,95904.00
2024-02-19T11:42:07.503Z,95899.00
2024-02-19T11:43:05.924Z,95898.00
2024-02-19T11:44:05.890Z,95898.00
2024-02-19T11:45:05.874Z,95894.00